Terminal Aerodrome Forecast
Issued by NWS

Home | Current Version | Previous Version | Text Only | Print | Product List | Glossary On
Versions: 1 2 3 4 5 6 7 8 9 10 11 12 13 14 15 16 17 18
000
FTUS41 KAKQ 011132
TAFPHF
TAF
KPHF 011132Z 0112/0212 11004KT P6SM OVC035
     FM011400 17006KT 4SM BR OVC015
     FM011800 22010KT P6SM -SHRA SCT015 BKN035
     FM012100 18006KT P6SM BKN050
     FM020000 20008KT P6SM BKN100
     FM020800 23008KT 4SM BR OVC015=

USA.gov is the U.S. government's official web portal to all federal, state and local government web resources and services.